Архив погоды в Нерчинском Заводе

Метеограмма Нерчинский Завод
Пятница, 24 Мая
Время местн. Темп Ветер Видим Явления Облачность нижн/средн/верх Атм. давл. Влжн Точка росы ВНГО R Сост. почвы Tg s
Напр Скр Прв ур.ст ур.м изм
14:00 +17.3° С-З 4 - 50 км - облачно 697 749 +1 31% 1 км - - - -
11:00 +19° С-З 4 - 50 км - облачно 696 748 +1.5 29% +0.7° 1 км - - - -
08:00 +20.1° Ю-З 1 - 50 км - облачно 695 746 +1.7 33% +3.2° 1 км 0 Сухая (без трещин) - -
05:00 +14.3° Ю,Ю-З 1 - 50 км - облачно 693 745 -0.1 58% +6.1° 1.5 км - - - -
02:00 +13.3° Ю-З 1 - - - переменная облачность 693 746 -0.5 56% +4.6° - - - - -
Четверг, 23 Мая
Время местн. Темп Ветер Видим Явления Облачность нижн/средн/верх Атм. давл. Влжн Точка росы ВНГО R Сост. почвы Tg s
Напр Скр Прв ур.ст ур.м изм
23:00 +16.1° З,С-З 2 - - - преимущественно облачно 693 745 -0.2 48% +5.2° 1.5 км - - - -
20:00 +18.4° штиль 0 - 50 км - облачно с прояснениями 694 745 +0.3 42% +5.2° 1.5 км 0 - - -
17:00 +27.5° З,С-З 2 - 50 км - преимущественно облачно 693 743 -0.8 15% -1° более 2.5 км - - - -
14:00 +28.6° З 3 - 50 км - переменная облачность 694 744 -1 14% -1.8° - - - - -
11:00 +27.6° З 4 - 50 км - переменная облачность 695 745 -0.7 14% -1.8° - - - - -
08:00 +19.3° В 1 - 50 км - переменная облачность 696 747 -0.5 30% +1.4° более 2.5 км 0 Сухая (без трещин) - -
05:00 +9.4° З 2 - 50 км - облачно 696 750 +0.2 59% +1.8° 1.5 км - - - -
02:00 +10° штиль 0 - - - облачно 696 750 +0.2 55% +1.5° 1.5 км - - - -
Среда, 22 Мая
Время местн. Темп Ветер Видим Явления Облачность нижн/средн/верх Атм. давл. Влжн Точка росы ВНГО R Сост. почвы Tg s
Напр Скр Прв ур.ст ур.м изм
23:00 +10.7° штиль 0 - - - переменная облачность 696 749 +0.5 51% +1° - - - - -
20:00 +15.3° штиль 0 - 50 км - переменная облачность 696 748 +0.5 33% -1° - 0 - - -
17:00 +23.3° С,С-З 3 - 50 км - переменная облачность 695 746 +0.1 13% -6.2° более 2.5 км - - - -
14:00 +22° С 3 - 50 км - ясно 695 746 -1.5 16% -5° более 2.5 км - - - -
11:00 +18.7° С,С-В 2 - 50 км - ясно 696 748 -0.8 19% -5.7° более 2.5 км - - - -
08:00 +14.9° С 2 - 50 км - ясно 697 750 +0.8 23% -6.2° более 2.5 км 0 Влажная (без луж) - -
05:00 +6.6° С-З 1 - 50 км - ясно 696 751 +0.5 47% -3.8° более 2.5 км - - - -
02:00 +5.7° штиль 0 - - - ясно 696 750 +0.1 45% -5.4° более 2.5 км - - - -
Вторник, 21 Мая
Время местн. Темп Ветер Видим Явления Облачность нижн/средн/верх Атм. давл. Влжн Точка росы ВНГО R Сост. почвы Tg s
Напр Скр Прв ур.ст ур.м изм
23:00 +6.9° штиль 0 - - - ясно 696 750 +0.2 45% -4.2° более 2.5 км - - - -
20:00 +16.4° С,С-З 2 - 50 км небо без изменений {метель} незначительная облачность 696 748 +0.6 18% -8.3° более 2.5 км 0 - - -
17:00 +18.5° С,С-З 7 14 50 км облака рассеиваются {метель} переменная облачность 695 747 0 14% -9.4° более 2.5 км - - - -
14:00 +18° С 5 11 50 км - облачно с прояснениями 696 748 -1 14% -9.7° - - - - -
11:00 +14.8° С 7 14 50 км - переменная облачность 697 749 -0.4 19% -8.6° - - - - -